Mount Union, Pennsylvania
Current Conditions -  °F | °C
As of 6:53 PM on Monday 24 Nov 2014 (Local Time) from KAOO Reporting Station
Clear Clear  
Wind Chill: 63°   Ceiling: Unl
Heat Index: 63°   Visibility: 10mi
Dew Point: 41°   Wind: 18mph
Humidity: 45%   Direction: 240°WSW
Pressure: 29.64"   Gusts: 26mph
Location:  40.38°N, 77.88°W
Report Text: KAOO 242353Z AUTO 24016G23KT 10SM CLR 17/05 A2964 RMK AO2 SLP033 T01720050 10200 20172 53033
Loading
Personal Weather Stations






























Interactive Weather Map New forecast layout! Learn more

10-Day Weather Forecast

Advertisements
Track Severe Weather on mobile